Amsterdam, Missouri
Current Conditions -  °F | °C
As of 1:53 AM on Wednesday 26 Nov 2014 (Local Time) from KOJC Reporting Station
Overcast Overcast  
Wind Chill: 33°   Ceiling: 8000
Heat Index: 38°   Visibility: 10mi
Dew Point: 22°   Wind: 7mph
Humidity: 53%   Direction: 180°S
Pressure: 29.94"   Gusts: NA
Location:  38.35°N, 94.59°W
Report Text: KOJC 260753Z AUTO 18006KT 10SM BKN080 OVC090 03/M06 A2994 RMK AO2 SLP142 T00331056
Loading
Personal Weather Stations






























Interactive Weather Map New forecast layout! Learn more

10-Day Weather Forecast

Advertisements
Track Severe Weather on mobile